Archival Weather

Chicago O'Hare International

Chicago, Illinois (KORD)

Report from: Tuesday, December 6, 2022 8:35 AM CST
Current time: Saturday, February 4, 2023 10:57 PM CST

Current weather
Weather history
Weather forecast

Temperature5.0°C (41.0°F)
Wind chill2.8°C (37.1°F)
Dew point1.1°C (34.0°F)
Winds 5 kts (2.6 m/s, 5.8 mph) North (360°)
Visibility10 mi. (16.1 km)
Clouds Ceiling: Broken clouds 1,900 ft. (579 m)
Overcast 2,600 ft. (792 m)
Altimeter30.02 in.Hg (1017 mB)
Relative humidity76 %
Density altitude-1,223 ft. (-373 m)
Remarks Automated weather observing station with precipitation discriminator
Flight conditions Marginal Visual Meteorological Conditions
Raw dataKORD 061435Z 36005KT 10SM BKN019 OVC026 05/01 A3002 RMK AO2 T00500011
An unhandled exception has occurred. See browser dev tools for details. Reload 🗙